Time;durP1;ratioP1;P1;durP2;ratioP2;P2;SDS_P1;SDS_P2;PMS_P1;PMS_P2;Temp;Humidity;BMP_temperature;BMP_pressure;BME280_temperature;BME280_humidity;BME280_pressure;Samples;Min_cycle;Max_cycle;Signal;HPM_P1;HPM_P2
2022/01/31 00:02:25;;;;;;;19.60;4.68;;;4.00;99.90;;;;;;4942740;28;20432;-76
2022/01/31 00:04:51;;;;;;;21.70;5.50;;;4.00;99.90;;;;;;4965175;28;20031;-76
2022/01/31 00:07:16;;;;;;;22.70;5.65;;;4.00;99.90;;;;;;4933280;28;20031;-76
2022/01/31 00:09:44;;;;;;;19.27;5.00;;;4.00;99.90;;;;;;4960317;28;22973;-76
2022/01/31 00:12:17;;;;;;;20.08;5.53;;;4.00;99.90;;;;;;4966676;28;20047;-76
2022/01/31 00:14:49;;;;;;;19.65;5.75;;;3.90;99.90;;;;;;4944627;28;20351;-76
2022/01/31 00:17:15;;;;;;;22.05;5.32;;;3.90;99.90;;;;;;4951768;28;20027;-76
2022/01/31 00:19:42;;;;;;;23.60;6.05;;;3.90;99.90;;;;;;4932252;28;20102;-76
2022/01/31 00:22:12;;;;;;;23.02;5.72;;;3.90;99.90;;;;;;4961645;28;20054;-76
2022/01/31 00:24:38;;;;;;;29.90;6.30;;;3.80;99.90;;;;;;4948735;28;20022;-76
2022/01/31 00:27:06;;;;;;;27.10;6.43;;;3.80;99.90;;;;;;4949854;28;20038;-76
2022/01/31 00:29:31;;;;;;;23.83;7.18;;;3.80;99.90;;;;;;4967962;28;20042;-77
2022/01/31 00:31:57;;;;;;;24.83;6.78;;;3.90;99.90;;;;;;4962545;28;20122;-76
2022/01/31 00:34:23;;;;;;;20.52;7.00;;;3.90;99.90;;;;;;4950771;28;20059;-77
2022/01/31 00:36:49;;;;;;;27.92;7.43;;;3.90;99.90;;;;;;4960452;28;20047;-76
2022/01/31 00:39:15;;;;;;;23.25;6.63;;;3.90;99.90;;;;;;4962168;28;20032;-76
2022/01/31 00:41:41;;;;;;;22.73;6.10;;;3.90;99.90;;;;;;4962170;28;20031;-76
2022/01/31 00:46:42;;;;;;;19.70;6.30;;;4.00;99.90;;;;;;4968821;28;20042;-77
2022/01/31 00:49:27;;;;;;;21.10;7.40;;;4.00;99.90;;;;;;4974245;28;20035;-77
2022/01/31 00:51:54;;;;;;;20.35;6.80;;;4.00;99.90;;;;;;4970529;28;20031;-77
2022/01/31 00:54:20;;;;;;;26.20;7.97;;;4.00;99.90;;;;;;4959370;28;20130;-77
2022/01/31 00:56:46;;;;;;;32.80;12.02;;;4.00;99.90;;;;;;4928743;28;20058;-77
2022/01/31 00:59:11;;;;;;;76.97;24.63;;;4.00;99.90;;;;;;4946552;28;20507;-77
2022/01/31 01:01:37;;;;;;;32.47;12.48;;;4.00;99.90;;;;;;4968135;28;20043;-77
2022/01/31 01:04:02;;;;;;;29.42;11.23;;;4.00;99.90;;;;;;4963696;28;20494;-77
2022/01/31 01:06:28;;;;;;;30.75;13.50;;;4.00;99.90;;;;;;4964582;28;20027;-77
2022/01/31 01:08:54;;;;;;;28.02;10.68;;;4.00;99.90;;;;;;4963993;28;20074;-77
2022/01/31 01:11:20;;;;;;;29.95;10.48;;;4.00;99.90;;;;;;4958407;28;20055;-76
2022/01/31 01:13:45;;;;;;;27.83;10.00;;;4.10;99.90;;;;;;4962627;28;20106;-78
2022/01/31 01:16:11;;;;;;;27.85;9.80;;;4.10;99.90;;;;;;4944459;28;20039;-78
2022/01/31 01:18:36;;;;;;;31.52;11.30;;;4.10;99.90;;;;;;4945612;28;20023;-78
2022/01/31 01:21:02;;;;;;;21.25;9.93;;;4.10;99.90;;;;;;4948048;28;20027;-78
2022/01/31 01:23:28;;;;;;;23.35;9.57;;;4.00;99.90;;;;;;4950333;28;20121;-78
2022/01/31 01:25:54;;;;;;;27.08;10.95;;;4.10;99.90;;;;;;4954750;28;20038;-77
2022/01/31 01:28:22;;;;;;;24.52;11.68;;;4.00;99.90;;;;;;4966483;28;20031;-77
2022/01/31 01:30:48;;;;;;;26.10;11.90;;;4.00;99.90;;;;;;4959316;28;20027;-77
2022/01/31 01:33:19;;;;;;;27.88;11.77;;;4.00;99.90;;;;;;4946567;28;20114;-77
2022/01/31 01:35:48;;;;;;;25.33;10.60;;;3.90;99.90;;;;;;4950222;28;20363;-78
2022/01/31 01:38:16;;;;;;;26.40;11.15;;;3.90;99.90;;;;;;4963296;28;20034;-78
2022/01/31 01:40:42;;;;;;;26.17;11.40;;;3.90;99.90;;;;;;4961663;28;20031;-79
2022/01/31 01:43:09;;;;;;;28.27;11.77;;;3.80;99.90;;;;;;4965275;28;20053;-79
2022/01/31 01:45:35;;;;;;;30.05;12.57;;;3.80;99.90;;;;;;4964994;28;20065;-79
2022/01/31 01:48:00;;;;;;;28.33;12.93;;;3.80;99.90;;;;;;4949413;28;20031;-79
2022/01/31 01:50:26;;;;;;;27.50;12.43;;;3.80;99.90;;;;;;4964382;28;20274;-78
2022/01/31 01:52:53;;;;;;;28.80;13.20;;;3.70;99.90;;;;;;4965496;28;20035;-78
2022/01/31 01:55:19;;;;;;;28.17;12.68;;;3.70;99.90;;;;;;4950932;28;20042;-78
2022/01/31 01:57:45;;;;;;;29.08;13.20;;;3.60;99.90;;;;;;4957495;28;20091;-78
2022/01/31 02:00:16;;;;;;;27.83;12.65;;;3.60;99.90;;;;;;4962603;28;20495;-78
2022/01/31 02:02:45;;;;;;;28.85;13.55;;;3.50;99.90;;;;;;4944381;28;20057;-80
2022/01/31 02:05:12;;;;;;;25.13;13.68;;;3.50;99.90;;;;;;4948462;28;20066;-79
2022/01/31 02:07:39;;;;;;;27.38;14.05;;;3.40;99.90;;;;;;4959178;28;20053;-78
2022/01/31 02:10:06;;;;;;;32.47;14.80;;;3.40;99.90;;;;;;4967767;28;20036;-79
2022/01/31 02:12:42;;;;;;;26.50;14.07;;;3.40;99.90;;;;;;4960196;28;20031;-79
2022/01/31 02:15:09;;;;;;;27.42;14.20;;;3.40;99.90;;;;;;4963149;28;20046;-79
2022/01/31 02:17:36;;;;;;;24.77;12.80;;;3.40;99.90;;;;;;4950847;28;20041;-78
2022/01/31 02:20:05;;;;;;;27.52;13.18;;;3.50;99.90;;;;;;4963687;28;20035;-78
2022/01/31 02:22:30;;;;;;;25.92;13.15;;;3.50;99.90;;;;;;4934959;28;20027;-78
2022/01/31 02:24:56;;;;;;;23.80;11.98;;;3.50;99.90;;;;;;4960980;28;20028;-78
2022/01/31 02:27:27;;;;;;;25.17;13.45;;;3.50;99.90;;;;;;4961530;28;20023;-79
2022/01/31 02:29:53;;;;;;;22.73;12.15;;;3.50;99.90;;;;;;4963448;28;20129;-78
2022/01/31 02:32:20;;;;;;;24.10;11.57;;;3.50;99.90;;;;;;4964106;28;20028;-78
2022/01/31 02:34:46;;;;;;;23.15;11.93;;;3.50;99.90;;;;;;4943662;28;20031;-78
2022/01/31 02:37:12;;;;;;;24.45;11.68;;;3.50;99.90;;;;;;4967946;28;20093;-78
2022/01/31 02:39:38;;;;;;;23.98;11.35;;;3.50;99.90;;;;;;4969474;28;20047;-78
2022/01/31 02:42:04;;;;;;;22.17;11.75;;;3.60;99.90;;;;;;4966052;28;20035;-78
2022/01/31 02:44:30;;;;;;;19.90;9.93;;;3.60;99.90;;;;;;4948255;28;20041;-79
2022/01/31 02:46:56;;;;;;;18.70;8.43;;;3.50;99.90;;;;;;4968239;28;20059;-78
2022/01/31 02:49:27;;;;;;;16.38;8.77;;;3.60;99.90;;;;;;4963361;28;20035;-79
2022/01/31 02:51:56;;;;;;;19.33;8.30;;;3.60;99.90;;;;;;4970594;28;20089;-79
2022/01/31 02:54:23;;;;;;;13.07;7.95;;;3.60;99.90;;;;;;4946940;28;20100;-78
2022/01/31 02:56:49;;;;;;;16.58;7.63;;;3.60;99.90;;;;;;4960962;28;20574;-79
2022/01/31 02:59:15;;;;;;;14.23;7.10;;;3.60;99.90;;;;;;4957731;28;20031;-78
2022/01/31 03:01:40;;;;;;;15.13;7.43;;;3.60;99.90;;;;;;4961196;28;20412;-78
2022/01/31 03:04:07;;;;;;;15.05;7.47;;;3.60;99.90;;;;;;4959516;28;20134;-80
2022/01/31 03:06:33;;;;;;;13.35;7.03;;;3.60;99.90;;;;;;4944841;28;20038;-79
2022/01/31 03:08:59;;;;;;;18.17;8.20;;;3.70;99.90;;;;;;4959029;28;20039;-79
2022/01/31 03:11:25;;;;;;;13.32;6.82;;;3.70;99.90;;;;;;4962556;28;20046;-79
2022/01/31 03:13:50;;;;;;;14.60;7.38;;;3.80;99.90;;;;;;4958208;28;20067;-79
2022/01/31 03:16:16;;;;;;;12.32;6.82;;;3.80;99.90;;;;;;4961147;28;20016;-79
2022/01/31 03:18:42;;;;;;;13.68;6.93;;;3.90;99.90;;;;;;4951920;28;20046;-79
2022/01/31 03:21:07;;;;;;;15.65;7.50;;;3.90;99.90;;;;;;4959571;28;20024;-79
2022/01/31 03:23:34;;;;;;;17.48;8.20;;;4.00;99.90;;;;;;4953672;28;20047;-79
2022/01/31 03:26:00;;;;;;;17.35;7.90;;;4.00;99.90;;;;;;4954849;28;20034;-79
2022/01/31 03:28:25;;;;;;;17.77;6.80;;;4.10;99.90;;;;;;4977934;28;20023;-77
2022/01/31 03:30:51;;;;;;;20.92;7.50;;;4.20;99.90;;;;;;4931125;28;20099;-79
2022/01/31 03:33:17;;;;;;;16.90;7.70;;;4.30;99.90;;;;;;4962692;28;20023;-79
2022/01/31 03:35:43;;;;;;;21.33;6.85;;;4.40;99.90;;;;;;4968266;28;20070;-81
2022/01/31 03:38:09;;;;;;;19.48;7.00;;;4.50;99.90;;;;;;4969248;28;20102;-78
2022/01/31 03:40:34;;;;;;;21.30;7.80;;;4.60;99.90;;;;;;4963722;28;20035;-79
2022/01/31 03:43:00;;;;;;;19.20;8.27;;;4.70;99.90;;;;;;4964317;28;20099;-79
2022/01/31 03:45:32;;;;;;;25.65;7.63;;;4.70;99.90;;;;;;4946584;29;20122;-80
2022/01/31 03:48:00;;;;;;;23.20;7.43;;;4.80;99.90;;;;;;4961955;28;20028;-79
2022/01/31 03:50:26;;;;;;;23.67;6.95;;;4.80;99.90;;;;;;4963888;28;20047;-79
2022/01/31 03:52:53;;;;;;;27.30;7.80;;;4.90;99.90;;;;;;4971968;28;20045;-79
2022/01/31 03:55:20;;;;;;;22.83;6.43;;;4.90;99.90;;;;;;4963156;28;20020;-79
2022/01/31 03:57:46;;;;;;;23.85;5.53;;;5.00;99.90;;;;;;4952514;28;20030;-79
2022/01/31 04:00:14;;;;;;;22.65;5.60;;;5.10;99.90;;;;;;4965447;28;20027;-79
2022/01/31 04:02:41;;;;;;;23.73;5.85;;;5.20;99.90;;;;;;4963620;28;20030;-79
2022/01/31 04:05:07;;;;;;;23.90;5.05;;;5.20;99.90;;;;;;4942736;28;20042;-80
2022/01/31 04:07:33;;;;;;;20.55;5.00;;;5.20;99.90;;;;;;4952042;29;20502;-79
2022/01/31 04:09:59;;;;;;;22.75;5.65;;;5.20;99.90;;;;;;4948389;28;20082;-79
2022/01/31 04:12:24;;;;;;;24.67;5.20;;;5.20;99.90;;;;;;4961516;28;20043;-79
2022/01/31 04:14:51;;;;;;;27.33;5.90;;;5.20;99.90;;;;;;4971729;28;20577;-79
2022/01/31 04:17:19;;;;;;;26.67;5.57;;;5.20;99.90;;;;;;4969955;28;20028;-79
2022/01/31 04:19:46;;;;;;;17.95;4.53;;;5.20;99.90;;;;;;4959135;28;20054;-79
2022/01/31 04:22:15;;;;;;;23.23;5.25;;;5.30;99.90;;;;;;4961748;28;20019;-79
2022/01/31 04:24:41;;;;;;;19.15;4.60;;;5.30;99.90;;;;;;4938759;28;20039;-79
2022/01/31 04:27:08;;;;;;;30.75;5.53;;;5.40;99.90;;;;;;4965418;28;20027;-79
2022/01/31 04:29:38;;;;;;;22.10;4.55;;;5.40;99.90;;;;;;4964611;28;20050;-79
2022/01/31 04:32:05;;;;;;;21.50;3.92;;;5.40;99.90;;;;;;4940664;28;20075;-79
2022/01/31 04:34:31;;;;;;;17.05;4.32;;;5.40;99.90;;;;;;4959668;28;20584;-79
2022/01/31 04:36:58;;;;;;;20.02;3.67;;;5.40;99.90;;;;;;4964389;28;20027;-79
2022/01/31 04:39:24;;;;;;;21.20;3.90;;;5.50;99.90;;;;;;4961779;28;20350;-79
2022/01/31 04:41:51;;;;;;;20.10;3.60;;;5.50;99.90;;;;;;4946042;28;20036;-79
2022/01/31 04:44:17;;;;;;;22.50;4.75;;;5.50;99.90;;;;;;4974364;28;20497;-79
2022/01/31 04:46:45;;;;;;;22.00;4.28;;;5.40;99.90;;;;;;4967923;28;20506;-79
2022/01/31 04:49:11;;;;;;;24.27;5.38;;;5.30;99.90;;;;;;4959079;28;20058;-79
2022/01/31 04:51:37;;;;;;;19.98;3.72;;;5.20;99.90;;;;;;4933401;28;20075;-79
2022/01/31 04:54:03;;;;;;;21.42;3.72;;;5.20;99.90;;;;;;4961076;28;20023;-79
2022/01/31 04:56:28;;;;;;;20.58;3.03;;;5.20;99.90;;;;;;4971330;28;20035;-79
2022/01/31 04:58:54;;;;;;;26.63;4.68;;;5.10;99.90;;;;;;4972593;28;20031;-79
2022/01/31 05:01:20;;;;;;;23.00;3.70;;;5.20;99.90;;;;;;4958146;28;20158;-83
2022/01/31 05:03:47;;;;;;;22.77;4.35;;;5.20;99.90;;;;;;4958193;28;20046;-84
2022/01/31 05:06:16;;;;;;;20.38;3.78;;;5.20;99.90;;;;;;4961365;28;20027;-80
2022/01/31 05:08:41;;;;;;;20.08;3.90;;;5.20;99.90;;;;;;4967276;28;20127;-84
2022/01/31 05:11:08;;;;;;;18.13;3.70;;;5.30;99.90;;;;;;4939952;29;20047;-82
2022/01/31 05:13:37;;;;;;;24.02;5.88;;;5.30;99.90;;;;;;4946436;29;20032;-82
2022/01/31 05:16:04;;;;;;;25.08;5.22;;;5.20;99.90;;;;;;4961093;28;20542;-80
2022/01/31 05:18:30;;;;;;;21.95;4.32;;;5.10;99.90;;;;;;4941715;29;20082;-80
2022/01/31 05:20:56;;;;;;;20.48;4.05;;;5.20;99.90;;;;;;4943207;28;20054;-79
2022/01/31 05:23:21;;;;;;;23.00;3.53;;;5.20;99.90;;;;;;4944453;29;20031;-78
2022/01/31 05:25:47;;;;;;;19.65;4.03;;;5.30;99.90;;;;;;4939208;29;20116;-79
2022/01/31 05:28:13;;;;;;;16.40;3.97;;;5.30;99.90;;;;;;4950309;28;20050;-78
2022/01/31 05:30:39;;;;;;;11.20;1.58;;;5.30;99.90;;;;;;4941796;29;20107;-78
2022/01/31 05:33:05;;;;;;;8.68;1.52;;;5.10;99.90;;;;;;4938633;29;20112;-78
2022/01/31 05:35:31;;;;;;;6.00;1.30;;;4.90;99.90;;;;;;4940668;29;20034;-78
2022/01/31 05:37:56;;;;;;;10.85;3.72;;;4.80;99.90;;;;;;4939201;29;20028;-78
2022/01/31 05:40:22;;;;;;;11.52;3.03;;;4.70;99.90;;;;;;4939087;29;20047;-79
2022/01/31 05:42:48;;;;;;;9.75;1.42;;;4.70;99.90;;;;;;4939302;29;20141;-78
2022/01/31 05:45:14;;;;;;;8.73;1.40;;;4.60;99.90;;;;;;4947899;29;20091;-82
2022/01/31 05:47:39;;;;;;;10.07;1.27;;;4.60;99.90;;;;;;4944156;29;20058;-81
2022/01/31 05:50:06;;;;;;;7.35;1.00;;;4.60;99.90;;;;;;4957953;28;20040;-78
2022/01/31 05:52:32;;;;;;;8.63;1.55;;;4.60;99.90;;;;;;4940107;29;20043;-78
2022/01/31 05:54:59;;;;;;;6.65;1.23;;;4.60;99.90;;;;;;4938582;29;20028;-80
2022/01/31 05:57:25;;;;;;;10.85;1.40;;;4.50;99.90;;;;;;4938992;29;20043;-78
2022/01/31 05:59:51;;;;;;;9.07;1.25;;;4.60;99.90;;;;;;4939955;29;20020;-79
2022/01/31 06:02:17;;;;;;;6.28;1.30;;;4.50;99.90;;;;;;4951937;29;20035;-78
2022/01/31 06:04:43;;;;;;;9.80;1.75;;;4.60;99.90;;;;;;4939273;29;20036;-79
2022/01/31 06:07:08;;;;;;;9.57;1.63;;;4.60;99.90;;;;;;4940096;29;20051;-79
2022/01/31 06:09:34;;;;;;;10.80;1.58;;;4.50;99.90;;;;;;4958477;28;20051;-78
2022/01/31 06:12:03;;;;;;;12.88;1.92;;;4.50;99.90;;;;;;4938911;29;20060;-79
2022/01/31 06:14:30;;;;;;;13.05;1.80;;;4.50;99.90;;;;;;4933057;29;20039;-79
2022/01/31 06:16:56;;;;;;;11.68;2.08;;;4.60;99.90;;;;;;4919755;29;20066;-79
2022/01/31 06:19:21;;;;;;;11.45;1.98;;;4.60;99.90;;;;;;4942103;29;20027;-78
2022/01/31 06:21:47;;;;;;;11.98;1.95;;;4.60;99.90;;;;;;4938915;29;20064;-78
2022/01/31 06:24:14;;;;;;;12.63;2.15;;;4.70;99.90;;;;;;4937763;29;20039;-78
2022/01/31 06:26:41;;;;;;;10.38;2.05;;;4.70;99.90;;;;;;4941576;29;20424;-78
2022/01/31 06:29:07;;;;;;;14.82;2.47;;;4.70;99.90;;;;;;4945147;29;20748;-79
2022/01/31 06:31:33;;;;;;;9.70;2.17;;;4.70;99.90;;;;;;4939107;29;20090;-85
2022/01/31 06:34:00;;;;;;;16.85;2.78;;;4.80;99.90;;;;;;4920227;29;20034;-81
2022/01/31 06:36:26;;;;;;;17.40;2.53;;;4.80;99.90;;;;;;4937237;29;20023;-82
2022/01/31 06:38:52;;;;;;;18.38;3.40;;;4.80;99.90;;;;;;4940239;29;20036;-88
2022/01/31 06:41:19;;;;;;;14.02;2.58;;;4.90;99.90;;;;;;4938242;29;20019;-79
2022/01/31 06:43:45;;;;;;;18.98;3.20;;;4.90;99.90;;;;;;4945362;29;20035;-78
2022/01/31 06:46:12;;;;;;;21.20;2.67;;;4.90;99.90;;;;;;4936593;29;20117;-78
2022/01/31 06:48:38;;;;;;;18.70;3.28;;;4.90;99.90;;;;;;4937711;29;20091;-79
2022/01/31 06:51:03;;;;;;;16.42;2.75;;;4.90;99.90;;;;;;4938093;29;20070;-78
2022/01/31 06:53:29;;;;;;;12.20;2.20;;;4.90;99.90;;;;;;4927793;29;20024;-79
2022/01/31 06:55:56;;;;;;;13.02;2.40;;;4.90;99.90;;;;;;4939338;29;20447;-78
2022/01/31 06:58:22;;;;;;;12.70;2.83;;;5.00;99.90;;;;;;4946118;29;20024;-79
2022/01/31 07:00:48;;;;;;;13.77;2.38;;;5.00;99.90;;;;;;4952286;29;21655;-79
2022/01/31 07:03:13;;;;;;;15.20;2.60;;;5.00;99.90;;;;;;4938269;29;20035;-78
2022/01/31 07:05:40;;;;;;;17.98;2.80;;;5.00;99.90;;;;;;4941409;29;20101;-79
2022/01/31 07:08:06;;;;;;;8.93;1.92;;;5.00;99.90;;;;;;4968423;28;20030;-79
2022/01/31 07:10:32;;;;;;;11.65;2.05;;;5.00;99.90;;;;;;4947524;28;20133;-78
2022/01/31 07:12:59;;;;;;;11.35;1.95;;;5.00;99.90;;;;;;4963364;28;20075;-78
2022/01/31 07:15:25;;;;;;;11.63;2.03;;;4.90;99.90;;;;;;4956566;29;20031;-78
2022/01/31 07:17:51;;;;;;;12.48;1.90;;;5.00;99.90;;;;;;4964455;28;20045;-79
2022/01/31 07:20:23;;;;;;;7.10;1.70;;;4.90;99.90;;;;;;4957182;28;20042;-78
2022/01/31 07:22:56;;;;;;;9.60;2.03;;;4.90;99.90;;;;;;4942191;29;20575;-78
2022/01/31 07:25:34;;;;;;;9.80;1.75;;;4.90;99.90;;;;;;4962386;28;20035;-78
2022/01/31 07:28:01;;;;;;;9.93;1.95;;;4.80;99.90;;;;;;4962923;28;20027;-78
2022/01/31 07:30:29;;;;;;;9.23;1.95;;;4.80;99.90;;;;;;4964346;28;20046;-78
2022/01/31 07:32:55;;;;;;;12.20;1.90;;;4.80;99.90;;;;;;4962229;28;20035;-78
2022/01/31 07:35:21;;;;;;;14.98;2.10;;;4.80;99.90;;;;;;4945653;28;20045;-78
2022/01/31 07:37:47;;;;;;;13.50;2.05;;;4.80;99.90;;;;;;4958551;29;20063;-79
2022/01/31 07:40:13;;;;;;;15.43;2.13;;;4.80;99.90;;;;;;4968392;28;20118;-78
2022/01/31 07:42:38;;;;;;;15.73;2.20;;;4.80;99.90;;;;;;4957962;28;20031;-78
2022/01/31 07:45:05;;;;;;;15.02;2.60;;;4.90;99.90;;;;;;4952778;28;20526;-78
2022/01/31 07:47:30;;;;;;;15.65;2.05;;;4.90;99.90;;;;;;4968315;28;20028;-78
2022/01/31 07:49:57;;;;;;;11.55;2.03;;;5.00;99.90;;;;;;4963222;28;20427;-78
2022/01/31 07:52:23;;;;;;;14.13;2.40;;;5.00;99.90;;;;;;4964526;28;20032;-78
2022/01/31 07:54:49;;;;;;;13.10;2.88;;;5.00;99.90;;;;;;4971923;28;20060;-79
2022/01/31 07:57:16;;;;;;;15.13;2.95;;;5.00;99.90;;;;;;4964278;28;20649;-79
2022/01/31 07:59:42;;;;;;;14.07;2.17;;;5.10;99.90;;;;;;4953101;28;20415;-78
2022/01/31 08:02:08;;;;;;;17.25;2.50;;;5.20;99.90;;;;;;4966774;28;20095;-80
2022/01/31 08:04:33;;;;;;;16.00;2.70;;;5.20;99.90;;;;;;4968330;28;20035;-81
2022/01/31 08:06:59;;;;;;;18.83;3.17;;;5.20;99.90;;;;;;4965184;28;20038;-77
2022/01/31 08:09:25;;;;;;;18.10;2.50;;;5.20;99.90;;;;;;4973087;28;20039;-77
2022/01/31 08:11:50;;;;;;;11.70;2.30;;;5.30;99.90;;;;;;4937690;28;20059;-77
2022/01/31 08:14:18;;;;;;;15.25;2.42;;;5.30;99.90;;;;;;4969561;28;20039;-77
2022/01/31 08:16:44;;;;;;;13.05;2.25;;;5.30;99.90;;;;;;4947614;28;20028;-77
2022/01/31 08:19:11;;;;;;;9.73;2.13;;;5.40;99.90;;;;;;4944689;29;20031;-78
2022/01/31 08:21:37;;;;;;;14.65;2.75;;;5.40;99.90;;;;;;4935377;29;20043;-77
2022/01/31 08:24:04;;;;;;;12.60;2.40;;;5.50;99.90;;;;;;4929213;28;20027;-78
2022/01/31 08:26:30;;;;;;;18.90;2.90;;;5.50;99.90;;;;;;4962981;28;20031;-77
2022/01/31 08:31:29;;;;;;;;;;;5.60;99.90;;;;;;4946978;28;20047;-77
2022/01/31 08:36:22;;;;;;;20.13;3.30;;;5.70;99.90;;;;;;4963442;29;20125;-78
2022/01/31 08:38:50;;;;;;;20.10;3.72;;;5.80;99.90;;;;;;4945245;29;20039;-77
2022/01/31 08:41:16;;;;;;;15.27;3.05;;;5.90;99.90;;;;;;4962632;29;20063;-78
2022/01/31 08:43:42;;;;;;;17.83;3.28;;;5.90;99.90;;;;;;4963700;28;20439;-77
2022/01/31 08:46:10;;;;;;;19.70;4.13;;;5.90;99.90;;;;;;4962319;28;20085;-78
2022/01/31 08:48:36;;;;;;;22.70;3.63;;;5.90;99.90;;;;;;4959973;28;20069;-78
2022/01/31 08:51:04;;;;;;;21.45;3.50;;;6.00;99.90;;;;;;4960081;28;20099;-78
2022/01/31 08:53:32;;;;;;;21.08;3.38;;;6.00;99.90;;;;;;4945197;29;20031;-77
2022/01/31 08:56:06;;;;;;;13.98;3.53;;;6.00;99.90;;;;;;4963879;29;20023;-77
2022/01/31 08:58:33;;;;;;;21.17;3.33;;;6.10;99.90;;;;;;4959769;28;20375;-78
2022/01/31 09:01:04;;;;;;;19.20;3.08;;;6.10;99.90;;;;;;4962720;28;20051;-78
2022/01/31 09:06:07;;;;;;;19.20;2.67;;;6.00;99.90;;;;;;4962095;28;20046;-78
2022/01/31 09:08:33;;;;;;;13.88;2.25;;;6.00;99.90;;;;;;4961632;28;20094;-77
2022/01/31 09:10:59;;;;;;;18.55;2.92;;;6.10;99.90;;;;;;4960309;28;20031;-77
2022/01/31 09:13:25;;;;;;;13.00;2.50;;;6.10;99.90;;;;;;4963029;28;20027;-78
2022/01/31 09:15:51;;;;;;;15.52;2.70;;;6.20;99.90;;;;;;4959532;29;20031;-77
2022/01/31 09:18:17;;;;;;;15.77;2.53;;;6.20;99.90;;;;;;4962164;28;20079;-77
2022/01/31 09:20:43;;;;;;;17.77;3.10;;;6.30;99.90;;;;;;4959185;28;20031;-77
2022/01/31 09:23:08;;;;;;;14.15;2.15;;;6.40;99.90;;;;;;4960245;28;20169;-77
2022/01/31 09:25:35;;;;;;;14.00;2.60;;;6.50;99.90;;;;;;4944783;29;20023;-77
2022/01/31 09:28:02;;;;;;;16.23;3.13;;;6.60;99.90;;;;;;4943974;28;20174;-77
2022/01/31 09:30:29;;;;;;;11.63;2.05;;;6.60;99.90;;;;;;4944437;29;20566;-78
2022/01/31 09:32:56;;;;;;;14.25;2.15;;;6.60;99.90;;;;;;4960359;28;20038;-78
2022/01/31 09:35:23;;;;;;;17.58;2.47;;;6.60;99.90;;;;;;4960597;28;20110;-78
2022/01/31 09:37:48;;;;;;;12.05;2.05;;;6.70;99.90;;;;;;4961356;28;20077;-78
2022/01/31 09:40:19;;;;;;;12.00;2.05;;;6.60;99.90;;;;;;4959650;28;20479;-77
2022/01/31 09:43:10;;;;;;;12.68;2.08;;;6.60;99.90;;;;;;4941987;29;20051;-77
2022/01/31 09:45:56;;;;;;;15.00;2.40;;;6.60;99.90;;;;;;4944888;28;20031;-78
2022/01/31 09:48:33;;;;;;;16.92;2.55;;;6.60;99.90;;;;;;4961242;29;20102;-78
2022/01/31 09:51:11;;;;;;;17.33;4.53;;;6.60;99.90;;;;;;4960821;28;20046;-77
2022/01/31 09:53:41;;;;;;;13.00;2.75;;;6.60;99.90;;;;;;4949380;28;20031;-77
2022/01/31 09:56:09;;;;;;;13.60;2.35;;;6.70;99.90;;;;;;4961697;28;20090;-78
2022/01/31 09:58:36;;;;;;;11.68;2.53;;;6.70;99.90;;;;;;4960917;28;20059;-78
2022/01/31 10:01:04;;;;;;;15.07;2.38;;;6.80;99.90;;;;;;4944591;29;20037;-77
2022/01/31 10:03:30;;;;;;;19.63;2.33;;;6.90;99.90;;;;;;4959283;28;20171;-77
2022/01/31 10:05:57;;;;;;;10.85;1.55;;;6.90;99.90;;;;;;4961499;28;20484;-77
2022/01/31 10:08:28;;;;;;;7.93;1.90;;;6.90;99.90;;;;;;4943605;29;20066;-78
2022/01/31 10:11:00;;;;;;;9.18;2.22;;;7.00;99.90;;;;;;4958463;28;20421;-76
2022/01/31 10:16:28;;;;;;;11.00;1.90;;;7.00;99.90;;;;;;4960933;28;20127;-78
2022/01/31 10:19:06;;;;;;;9.27;1.30;;;7.00;99.90;;;;;;4960475;28;20027;-78
2022/01/31 10:21:51;;;;;;;6.88;1.50;;;7.00;99.90;;;;;;4961379;28;20038;-78
2022/01/31 10:24:17;;;;;;;10.30;2.42;;;7.10;99.90;;;;;;4959404;28;20027;-78
2022/01/31 10:26:43;;;;;;;9.60;2.22;;;7.10;99.90;;;;;;4958964;28;20035;-77
2022/01/31 10:29:14;;;;;;;11.43;1.88;;;7.00;99.90;;;;;;4961344;29;20095;-78
2022/01/31 10:32:10;;;;;;;8.57;1.50;;;7.00;99.90;;;;;;4959836;28;20027;-77
2022/01/31 10:34:46;;;;;;;7.85;1.55;;;7.40;99.90;;;;;;4950097;29;20283;-77
2022/01/31 10:37:13;;;;;;;9.65;1.55;;;7.50;99.90;;;;;;4942691;29;20099;-77
2022/01/31 10:53:08;;;;;;;8.65;1.52;;;7.80;99.90;;;;;;4960966;29;20110;-77
2022/01/31 10:55:33;;;;;;;10.70;1.73;;;7.70;99.90;;;;;;4959902;28;20098;-77
2022/01/31 10:58:08;;;;;;;14.73;2.15;;;7.60;99.90;;;;;;4925857;29;20035;-77
2022/01/31 11:00:38;;;;;;;10.98;1.90;;;7.50;99.90;;;;;;4960312;28;20047;-77
2022/01/31 11:03:32;;;;;;;12.15;1.83;;;7.40;99.90;;;;;;4960288;29;20035;-76
2022/01/31 11:06:01;;;;;;;17.17;3.08;;;7.50;99.90;;;;;;4953591;28;20102;-77
2022/01/31 11:08:28;;;;;;;10.65;1.98;;;7.50;99.90;;;;;;4955137;29;20031;-77
2022/01/31 11:10:58;;;;;;;10.80;2.40;;;7.60;99.90;;;;;;4925678;29;20050;-76
2022/01/31 11:13:25;;;;;;;11.80;1.83;;;7.70;99.90;;;;;;4960488;28;20468;-77
2022/01/31 11:15:55;;;;;;;12.93;2.30;;;7.60;99.90;;;;;;4958338;28;20039;-77
2022/01/31 11:18:23;;;;;;;16.45;2.33;;;7.60;99.90;;;;;;4957082;28;20031;-77
2022/01/31 11:20:52;;;;;;;16.10;2.22;;;7.60;99.90;;;;;;4940499;29;20059;-77
2022/01/31 11:23:21;;;;;;;11.95;2.20;;;7.60;99.90;;;;;;4941689;29;20028;-77
2022/01/31 11:25:53;;;;;;;17.15;2.42;;;7.70;99.90;;;;;;4943581;29;20035;-77
2022/01/31 11:28:19;;;;;;;;;;;7.80;99.90;;;;;;4959156;28;20031;-77
2022/01/31 11:30:45;;;;;;;16.15;2.60;;;8.00;99.90;;;;;;4942771;29;19981;-77
2022/01/31 11:33:12;;;;;;;17.38;2.65;;;8.20;99.90;;;;;;4958121;28;20036;-77
2022/01/31 11:35:38;;;;;;;20.17;2.70;;;8.30;99.90;;;;;;4974983;28;20039;-77
2022/01/31 11:38:04;;;;;;;21.10;3.03;;;8.40;99.90;;;;;;4942178;29;20028;-77
2022/01/31 11:40:30;;;;;;;13.80;2.67;;;8.40;99.90;;;;;;4958931;28;20043;-78
2022/01/31 11:42:56;;;;;;;16.88;2.88;;;8.50;99.90;;;;;;4961784;28;20043;-77
2022/01/31 11:45:30;;;;;;;14.75;2.17;;;8.60;99.90;;;;;;4964354;28;20126;-77
2022/01/31 11:47:58;;;;;;;16.25;2.72;;;8.60;99.90;;;;;;4961767;28;20033;-77
2022/01/31 11:50:26;;;;;;;11.30;2.17;;;8.60;99.90;;;;;;4970119;28;20062;-77
2022/01/31 11:52:58;;;;;;;17.95;2.55;;;8.80;99.90;;;;;;4981096;28;20034;-77
2022/01/31 11:55:29;;;;;;;14.20;2.22;;;8.80;99.90;;;;;;4967172;28;20038;-77
2022/01/31 11:57:57;;;;;;;13.80;2.70;;;8.80;99.90;;;;;;4961376;28;20439;-77
2022/01/31 12:00:27;;;;;;;11.60;2.10;;;8.70;99.90;;;;;;4964740;28;20035;-76
2022/01/31 12:03:13;;;;;;;11.55;2.17;;;8.70;99.90;;;;;;4962113;29;20516;-77
2022/01/31 12:05:40;;;;;;;16.17;2.22;;;8.60;99.90;;;;;;4957840;28;20071;-77
2022/01/31 12:08:14;;;;;;;11.93;2.25;;;8.60;99.90;;;;;;4973430;28;20574;-78
2022/01/31 12:10:44;;;;;;;11.98;1.77;;;8.80;99.90;;;;;;4965327;28;20145;-77
2022/01/31 12:13:46;;;;;;;11.73;2.40;;;8.90;99.90;;;;;;4968772;28;20439;-77
2022/01/31 12:16:40;;;;;;;10.13;1.77;;;9.00;99.90;;;;;;4962095;28;20086;-77
2022/01/31 12:22:04;;;;;;;19.00;2.10;;;9.30;99.90;;;;;;4962923;28;20438;-77
2022/01/31 12:24:45;;;;;;;11.93;2.20;;;9.30;99.90;;;;;;4951943;29;20023;-77
2022/01/31 12:27:12;;;;;;;13.77;2.08;;;9.10;99.90;;;;;;4980208;28;20058;-77
2022/01/31 12:29:43;;;;;;;8.82;1.70;;;9.00;99.90;;;;;;4968122;28;20070;-77
2022/01/31 12:32:36;;;;;;;10.45;1.50;;;8.90;99.90;;;;;;4971043;28;20034;-77
2022/01/31 12:35:09;;;;;;;11.15;2.35;;;8.80;99.90;;;;;;4954309;28;20049;-77
2022/01/31 12:37:39;;;;;;;9.73;1.75;;;8.80;99.90;;;;;;4962504;28;20024;-76
2022/01/31 12:40:15;;;;;;;16.55;2.28;;;8.60;99.90;;;;;;4956951;28;20077;-77
2022/01/31 12:45:16;;;;;;;9.57;1.92;;;8.60;99.90;;;;;;4961260;28;20051;-77
2022/01/31 12:48:19;;;;;;;12.63;2.30;;;8.60;99.90;;;;;;4954555;28;20034;-77
2022/01/31 12:50:58;;;;;;;11.43;1.70;;;8.50;99.90;;;;;;4960849;28;20053;-77
2022/01/31 12:53:29;;;;;;;12.65;2.55;;;8.50;99.90;;;;;;4969283;28;20190;-77
2022/01/31 12:56:13;;;;;;;9.87;2.07;;;8.50;99.90;;;;;;4972736;28;20032;-77
2022/01/31 12:58:41;;;;;;;12.57;2.55;;;8.30;99.90;;;;;;4965426;28;20059;-77
2022/01/31 13:01:15;;;;;;;16.20;2.83;;;8.30;99.90;;;;;;4961726;28;20058;-77
2022/01/31 13:03:44;;;;;;;15.20;2.53;;;8.30;99.90;;;;;;4963121;28;20150;-77
2022/01/31 13:06:36;;;;;;;16.52;2.10;;;8.30;99.90;;;;;;4958370;28;20035;-77
2022/01/31 13:09:20;;;;;;;14.18;2.00;;;8.30;99.90;;;;;;4962201;28;20035;-77
2022/01/31 13:11:53;;;;;;;16.00;2.42;;;8.30;99.90;;;;;;4959433;28;20047;-77
2022/01/31 13:14:29;;;;;;;15.50;2.80;;;8.20;99.90;;;;;;4965473;28;20086;-81
2022/01/31 13:17:11;;;;;;;13.65;2.65;;;8.20;99.90;;;;;;4964461;28;20039;-77
2022/01/31 13:19:40;;;;;;;16.42;2.97;;;8.20;99.90;;;;;;4966834;28;20071;-77
2022/01/31 13:22:11;;;;;;;13.85;2.40;;;8.30;99.90;;;;;;4962196;28;20030;-77
2022/01/31 13:24:44;;;;;;;17.42;3.20;;;8.30;99.90;;;;;;4964249;28;20091;-78
2022/01/31 13:27:19;;;;;;;13.70;2.60;;;8.30;99.90;;;;;;4961477;28;20522;-78